sensor_id;sensor_type;location;lat;lon;timestamp;temperature;humidity
54485;DHT22;45006;56.958;24.166;2022-10-17T15:00:06;22.30;83.80
54485;DHT22;45006;56.958;24.166;2022-10-17T15:02:33;21.80;91.10
54485;DHT22;45006;56.958;24.166;2022-10-17T15:05:03;21.70;89.00
54485;DHT22;45006;56.958;24.166;2022-10-17T15:07:35;21.70;87.20
54485;DHT22;45006;56.958;24.166;2022-10-17T15:10:03;21.60;86.60
54485;DHT22;45006;56.958;24.166;2022-10-17T15:12:30;21.60;86.70
54485;DHT22;45006;56.958;24.166;2022-10-17T15:14:59;21.60;86.40
54485;DHT22;45006;56.958;24.166;2022-10-17T15:17:31;21.60;86.10
54485;DHT22;45006;56.958;24.166;2022-10-17T15:20:00;21.50;85.80
54485;DHT22;45006;56.958;24.166;2022-10-17T15:22:27;21.50;85.60
54485;DHT22;45006;56.958;24.166;2022-10-17T15:24:54;21.50;85.50
54485;DHT22;45006;56.958;24.166;2022-10-17T15:27:23;21.50;85.20
54485;DHT22;45006;56.958;24.166;2022-10-17T15:29:50;21.50;85.10
54485;DHT22;45006;56.958;24.166;2022-10-17T15:32:18;21.50;85.00
54485;DHT22;45006;56.958;24.166;2022-10-17T15:34:45;21.50;84.50
54485;DHT22;45006;56.958;24.166;2022-10-17T15:37:22;21.50;84.90
54485;DHT22;45006;56.958;24.166;2022-10-17T15:39:51;21.50;84.90
54485;DHT22;45006;56.958;24.166;2022-10-17T15:42:21;21.50;84.80
54485;DHT22;45006;56.958;24.166;2022-10-17T15:44:48;21.50;84.50
54485;DHT22;45006;56.958;24.166;2022-10-17T15:47:23;21.40;85.00
54485;DHT22;45006;56.958;24.166;2022-10-17T15:49:50;21.40;84.50
54485;DHT22;45006;56.958;24.166;2022-10-17T15:52:17;21.50;84.30
54485;DHT22;45006;56.958;24.166;2022-10-17T15:54:44;21.50;83.80
54485;DHT22;45006;56.958;24.166;2022-10-17T15:57:20;21.40;83.90
54485;DHT22;45006;56.958;24.166;2022-10-17T15:59:49;21.40;84.30
54485;DHT22;45006;56.958;24.166;2022-10-17T16:02:17;21.40;83.80
54485;DHT22;45006;56.958;24.166;2022-10-17T16:04:46;21.40;83.60
54485;DHT22;45006;56.958;24.166;2022-10-17T16:07:13;21.40;83.50
54485;DHT22;45006;56.958;24.166;2022-10-17T16:09:39;21.40;83.60
54485;DHT22;45006;56.958;24.166;2022-10-17T16:12:13;21.40;83.50
54485;DHT22;45006;56.958;24.166;2022-10-17T16:14:40;21.40;83.50
54485;DHT22;45006;56.958;24.166;2022-10-17T16:17:16;21.40;83.30
54485;DHT22;45006;56.958;24.166;2022-10-17T16:19:43;21.40;83.30
54485;DHT22;45006;56.958;24.166;2022-10-17T16:22:23;21.40;83.20
54485;DHT22;45006;56.958;24.166;2022-10-17T16:24:51;21.40;83.20
54485;DHT22;45006;56.958;24.166;2022-10-17T16:27:24;21.40;82.80
54485;DHT22;45006;56.958;24.166;2022-10-17T16:29:51;21.40;82.80
54485;DHT22;45006;56.958;24.166;2022-10-17T16:32:18;21.40;82.90
54485;DHT22;45006;56.958;24.166;2022-10-17T16:34:45;21.40;83.10
54485;DHT22;45006;56.958;24.166;2022-10-17T16:37:11;21.40;82.90
54485;DHT22;45006;56.958;24.166;2022-10-17T16:39:38;21.40;82.80
54485;DHT22;45006;56.958;24.166;2022-10-17T16:42:05;21.40;82.70
54485;DHT22;45006;56.958;24.166;2022-10-17T16:44:31;21.40;83.00
54485;DHT22;45006;56.958;24.166;2022-10-17T16:46:58;21.40;82.60
54485;DHT22;45006;56.958;24.166;2022-10-17T16:49:25;21.40;82.80
54485;DHT22;45006;56.958;24.166;2022-10-17T16:51:54;21.40;82.50
54485;DHT22;45006;56.958;24.166;2022-10-17T16:54:21;21.40;83.50
54485;DHT22;45006;56.958;24.166;2022-10-17T16:56:47;21.50;82.50
54485;DHT22;45006;56.958;24.166;2022-10-17T16:59:15;21.40;82.30
54485;DHT22;45006;56.958;24.166;2022-10-17T17:01:42;21.50;83.10
54485;DHT22;45006;56.958;24.166;2022-10-17T17:04:09;21.50;83.30
54485;DHT22;45006;56.958;24.166;2022-10-17T17:06:36;21.50;83.90
54485;DHT22;45006;56.958;24.166;2022-10-17T17:09:03;21.30;84.60
54485;DHT22;45006;56.958;24.166;2022-10-17T17:11:30;21.30;84.90
54485;DHT22;45006;56.958;24.166;2022-10-17T17:13:58;21.20;85.10
54485;DHT22;45006;56.958;24.166;2022-10-17T17:16:28;21.20;85.20
54485;DHT22;45006;56.958;24.166;2022-10-17T17:19:02;21.20;85.20
54485;DHT22;45006;56.958;24.166;2022-10-17T17:21:31;21.20;85.30
54485;DHT22;45006;56.958;24.166;2022-10-17T17:23:59;21.20;85.30
54485;DHT22;45006;56.958;24.166;2022-10-17T17:26:33;21.20;85.30
54485;DHT22;45006;56.958;24.166;2022-10-17T17:29:04;21.20;85.30
54485;DHT22;45006;56.958;24.166;2022-10-17T17:31:32;21.20;85.30
54485;DHT22;45006;56.958;24.166;2022-10-17T17:34:01;21.20;85.30
54485;DHT22;45006;56.958;24.166;2022-10-17T17:36:31;21.20;85.30
54485;DHT22;45006;56.958;24.166;2022-10-17T17:39:00;21.20;85.30
54485;DHT22;45006;56.958;24.166;2022-10-17T17:41:27;21.20;85.40
54485;DHT22;45006;56.958;24.166;2022-10-17T17:43:54;21.20;85.40
54485;DHT22;45006;56.958;24.166;2022-10-17T17:46:22;21.20;85.40
54485;DHT22;45006;56.958;24.166;2022-10-17T17:48:50;21.20;85.30
54485;DHT22;45006;56.958;24.166;2022-10-17T17:51:21;21.20;85.30
54485;DHT22;45006;56.958;24.166;2022-10-17T17:53:55;21.20;85.20
54485;DHT22;45006;56.958;24.166;2022-10-17T17:56:27;21.20;85.20
54485;DHT22;45006;56.958;24.166;2022-10-17T17:58:59;21.20;85.20
54485;DHT22;45006;56.958;24.166;2022-10-17T18:01:28;21.20;85.20
54485;DHT22;45006;56.958;24.166;2022-10-17T18:03:57;21.20;85.20
54485;DHT22;45006;56.958;24.166;2022-10-17T18:06:27;21.20;85.20
54485;DHT22;45006;56.958;24.166;2022-10-17T18:08:56;21.20;85.20
54485;DHT22;45006;56.958;24.166;2022-10-17T18:11:24;21.20;85.10
54485;DHT22;45006;56.958;24.166;2022-10-17T18:14:02;21.20;85.10
54485;DHT22;45006;56.958;24.166;2022-10-17T18:16:30;21.20;85.00
54485;DHT22;45006;56.958;24.166;2022-10-17T18:18:57;21.20;85.00
54485;DHT22;45006;56.958;24.166;2022-10-17T18:21:32;21.20;85.00
54485;DHT22;45006;56.958;24.166;2022-10-17T18:23:59;21.20;85.00
54485;DHT22;45006;56.958;24.166;2022-10-17T18:26:26;21.20;85.00
54485;DHT22;45006;56.958;24.166;2022-10-17T18:28:53;21.20;84.90
54485;DHT22;45006;56.958;24.166;2022-10-17T18:31:22;21.20;84.90
54485;DHT22;45006;56.958;24.166;2022-10-17T18:33:53;21.20;84.90
54485;DHT22;45006;56.958;24.166;2022-10-17T18:36:21;21.20;84.90
54485;DHT22;45006;56.958;24.166;2022-10-17T18:38:48;21.20;84.90
54485;DHT22;45006;56.958;24.166;2022-10-17T18:41:20;21.20;84.90
54485;DHT22;45006;56.958;24.166;2022-10-17T18:43:49;21.20;84.90
54485;DHT22;45006;56.958;24.166;2022-10-17T18:46:31;21.20;84.90
54485;DHT22;45006;56.958;24.166;2022-10-17T18:49:01;21.20;84.90
54485;DHT22;45006;56.958;24.166;2022-10-17T18:51:29;21.10;84.80
54485;DHT22;45006;56.958;24.166;2022-10-17T18:53:56;21.20;84.90
54485;DHT22;45006;56.958;24.166;2022-10-17T18:56:24;21.20;84.90
54485;DHT22;45006;56.958;24.166;2022-10-17T18:58:51;21.10;84.90
54485;DHT22;45006;56.958;24.166;2022-10-17T19:01:25;21.10;84.80
54485;DHT22;45006;56.958;24.166;2022-10-17T19:03:54;21.10;84.80
54485;DHT22;45006;56.958;24.166;2022-10-17T19:06:29;21.10;84.90
54485;DHT22;45006;56.958;24.166;2022-10-17T19:09:00;21.10;84.80
54485;DHT22;45006;56.958;24.166;2022-10-17T19:11:28;21.10;84.80
54485;DHT22;45006;56.958;24.166;2022-10-17T19:13:57;21.10;84.80
54485;DHT22;45006;56.958;24.166;2022-10-17T19:16:30;21.10;84.80
54485;DHT22;45006;56.958;24.166;2022-10-17T19:19:03;21.10;84.80
54485;DHT22;45006;56.958;24.166;2022-10-17T19:21:30;21.10;84.70
54485;DHT22;45006;56.958;24.166;2022-10-17T19:24:00;21.10;84.80
54485;DHT22;45006;56.958;24.166;2022-10-17T19:26:29;21.10;84.70
54485;DHT22;45006;56.958;24.166;2022-10-17T19:28:56;21.10;84.80
54485;DHT22;45006;56.958;24.166;2022-10-17T19:31:28;21.10;84.90
54485;DHT22;45006;56.958;24.166;2022-10-17T19:33:55;21.10;84.90
54485;DHT22;45006;56.958;24.166;2022-10-17T19:36:27;21.10;84.90
54485;DHT22;45006;56.958;24.166;2022-10-17T19:39:01;21.10;84.80
54485;DHT22;45006;56.958;24.166;2022-10-17T19:41:28;21.10;84.60
54485;DHT22;45006;56.958;24.166;2022-10-17T19:43:55;21.10;84.60
54485;DHT22;45006;56.958;24.166;2022-10-17T19:46:23;21.10;84.60
54485;DHT22;45006;56.958;24.166;2022-10-17T19:48:51;21.10;84.60
54485;DHT22;45006;56.958;24.166;2022-10-17T19:51:20;21.10;84.70
54485;DHT22;45006;56.958;24.166;2022-10-17T19:53:50;21.10;84.70
54485;DHT22;45006;56.958;24.166;2022-10-17T19:56:21;21.10;84.70
54485;DHT22;45006;56.958;24.166;2022-10-17T19:58:49;21.10;84.70
54485;DHT22;45006;56.958;24.166;2022-10-17T20:01:19;21.10;84.90
54485;DHT22;45006;56.958;24.166;2022-10-17T20:03:46;21.10;85.30
54485;DHT22;45006;56.958;24.166;2022-10-17T20:06:14;21.10;84.90
54485;DHT22;45006;56.958;24.166;2022-10-17T20:08:41;21.10;85.00
54485;DHT22;45006;56.958;24.166;2022-10-17T20:11:12;21.20;85.10
54485;DHT22;45006;56.958;24.166;2022-10-17T20:13:39;21.20;85.20
54485;DHT22;45006;56.958;24.166;2022-10-17T20:16:07;21.20;85.70
54485;DHT22;45006;56.958;24.166;2022-10-17T20:18:37;21.30;85.40
54485;DHT22;45006;56.958;24.166;2022-10-17T20:21:09;21.30;85.90
54485;DHT22;45006;56.958;24.166;2022-10-17T20:23:37;21.30;85.50
54485;DHT22;45006;56.958;24.166;2022-10-17T20:26:07;21.30;85.60
54485;DHT22;45006;56.958;24.166;2022-10-17T20:28:54;21.30;86.30
54485;DHT22;45006;56.958;24.166;2022-10-17T20:31:21;21.30;86.10
54485;DHT22;45006;56.958;24.166;2022-10-17T20:33:58;21.30;86.20
54485;DHT22;45006;56.958;24.166;2022-10-17T20:36:25;21.30;86.10
54485;DHT22;45006;56.958;24.166;2022-10-17T20:38:53;21.30;86.20
54485;DHT22;45006;56.958;24.166;2022-10-17T20:41:21;21.30;86.00
54485;DHT22;45006;56.958;24.166;2022-10-17T20:43:52;21.30;86.30
54485;DHT22;45006;56.958;24.166;2022-10-17T20:46:21;21.30;86.40
54485;DHT22;45006;56.958;24.166;2022-10-17T20:49:02;21.30;86.20
54485;DHT22;45006;56.958;24.166;2022-10-17T20:51:30;21.30;86.20
54485;DHT22;45006;56.958;24.166;2022-10-17T20:53:56;21.30;86.10
54485;DHT22;45006;56.958;24.166;2022-10-17T20:56:26;21.30;86.20
54485;DHT22;45006;56.958;24.166;2022-10-17T20:58:56;21.30;86.30
54485;DHT22;45006;56.958;24.166;2022-10-17T21:01:24;21.30;86.10
54485;DHT22;45006;56.958;24.166;2022-10-17T21:03:52;21.30;86.30
54485;DHT22;45006;56.958;24.166;2022-10-17T21:06:19;21.30;86.10
54485;DHT22;45006;56.958;24.166;2022-10-17T21:08:47;21.30;86.10
54485;DHT22;45006;56.958;24.166;2022-10-17T21:11:16;21.30;86.20
54485;DHT22;45006;56.958;24.166;2022-10-17T21:13:44;21.30;86.30
54485;DHT22;45006;56.958;24.166;2022-10-17T21:16:16;21.30;86.20
54485;DHT22;45006;56.958;24.166;2022-10-17T21:18:44;21.30;86.10
54485;DHT22;45006;56.958;24.166;2022-10-17T21:21:22;21.30;86.20
54485;DHT22;45006;56.958;24.166;2022-10-17T21:23:51;21.30;86.20
54485;DHT22;45006;56.958;24.166;2022-10-17T21:26:18;21.30;86.40
54485;DHT22;45006;56.958;24.166;2022-10-17T21:28:47;21.30;86.30
54485;DHT22;45006;56.958;24.166;2022-10-17T21:31:20;21.30;86.40
54485;DHT22;45006;56.958;24.166;2022-10-17T21:33:55;21.30;86.30
54485;DHT22;45006;56.958;24.166;2022-10-17T21:36:23;21.30;86.30
54485;DHT22;45006;56.958;24.166;2022-10-17T21:38:55;21.30;86.80
54485;DHT22;45006;56.958;24.166;2022-10-17T21:41:27;21.30;86.70
54485;DHT22;45006;56.958;24.166;2022-10-17T21:43:56;21.30;86.70
54485;DHT22;45006;56.958;24.166;2022-10-17T21:46:23;21.30;86.70
54485;DHT22;45006;56.958;24.166;2022-10-17T21:48:51;21.30;86.90
54485;DHT22;45006;56.958;24.166;2022-10-17T21:51:20;21.30;86.90
54485;DHT22;45006;56.958;24.166;2022-10-17T21:53:48;21.30;87.00
54485;DHT22;45006;56.958;24.166;2022-10-17T21:56:18;21.30;87.00
54485;DHT22;45006;56.958;24.166;2022-10-17T21:58:46;21.30;86.90
54485;DHT22;45006;56.958;24.166;2022-10-17T22:01:36;21.30;86.70
54485;DHT22;45006;56.958;24.166;2022-10-17T22:04:06;21.30;86.70
54485;DHT22;45006;56.958;24.166;2022-10-17T22:06:35;21.30;86.90
54485;DHT22;45006;56.958;24.166;2022-10-17T22:09:09;21.30;86.80
54485;DHT22;45006;56.958;24.166;2022-10-17T22:11:37;21.30;87.20
54485;DHT22;45006;56.958;24.166;2022-10-17T22:14:07;21.30;87.20
54485;DHT22;45006;56.958;24.166;2022-10-17T22:16:36;21.30;87.10
54485;DHT22;45006;56.958;24.166;2022-10-17T22:19:05;21.30;87.40
54485;DHT22;45006;56.958;24.166;2022-10-17T22:21:34;21.30;86.70
54485;DHT22;45006;56.958;24.166;2022-10-17T22:24:04;21.30;87.00
54485;DHT22;45006;56.958;24.166;2022-10-17T22:26:33;21.30;86.90
54485;DHT22;45006;56.958;24.166;2022-10-17T22:29:00;21.20;86.90
54485;DHT22;45006;56.958;24.166;2022-10-17T22:31:28;21.20;86.80
54485;DHT22;45006;56.958;24.166;2022-10-17T22:33:54;21.20;86.90
54485;DHT22;45006;56.958;24.166;2022-10-17T22:36:22;21.20;87.30
54485;DHT22;45006;56.958;24.166;2022-10-17T22:38:48;21.30;86.90
54485;DHT22;45006;56.958;24.166;2022-10-17T22:41:15;21.20;87.00
54485;DHT22;45006;56.958;24.166;2022-10-17T22:43:42;21.30;87.10
54485;DHT22;45006;56.958;24.166;2022-10-17T22:46:11;21.20;87.10
54485;DHT22;45006;56.958;24.166;2022-10-17T22:48:39;21.20;87.00
54485;DHT22;45006;56.958;24.166;2022-10-17T22:51:06;21.20;86.70
54485;DHT22;45006;56.958;24.166;2022-10-17T22:53:33;21.20;86.60
54485;DHT22;45006;56.958;24.166;2022-10-17T22:56:06;21.30;86.60
54485;DHT22;45006;56.958;24.166;2022-10-17T22:58:34;21.20;86.70
54485;DHT22;45006;56.958;24.166;2022-10-17T23:01:02;21.20;86.70
54485;DHT22;45006;56.958;24.166;2022-10-17T23:03:30;21.20;86.90
54485;DHT22;45006;56.958;24.166;2022-10-17T23:05:57;21.20;87.00
54485;DHT22;45006;56.958;24.166;2022-10-17T23:08:24;21.20;86.60
54485;DHT22;45006;56.958;24.166;2022-10-17T23:10:52;21.20;86.70
54485;DHT22;45006;56.958;24.166;2022-10-17T23:13:19;21.20;86.70
54485;DHT22;45006;56.958;24.166;2022-10-17T23:15:54;21.20;86.90
54485;DHT22;45006;56.958;24.166;2022-10-17T23:18:22;21.20;86.90
54485;DHT22;45006;56.958;24.166;2022-10-17T23:20:49;21.20;86.80
54485;DHT22;45006;56.958;24.166;2022-10-17T23:23:17;21.20;86.80
54485;DHT22;45006;56.958;24.166;2022-10-17T23:25:44;21.20;86.80
54485;DHT22;45006;56.958;24.166;2022-10-17T23:28:12;21.20;86.70
54485;DHT22;45006;56.958;24.166;2022-10-17T23:30:39;21.20;86.60
54485;DHT22;45006;56.958;24.166;2022-10-17T23:33:06;21.20;86.80
54485;DHT22;45006;56.958;24.166;2022-10-17T23:35:34;21.20;87.30
54485;DHT22;45006;56.958;24.166;2022-10-17T23:38:01;21.20;87.40
54485;DHT22;45006;56.958;24.166;2022-10-17T23:40:28;21.20;86.80
54485;DHT22;45006;56.958;24.166;2022-10-17T23:42:55;21.20;86.80
54485;DHT22;45006;56.958;24.166;2022-10-17T23:45:21;21.20;87.20
54485;DHT22;45006;56.958;24.166;2022-10-17T23:47:48;21.20;86.90
54485;DHT22;45006;56.958;24.166;2022-10-17T23:50:15;21.20;87.10
54485;DHT22;45006;56.958;24.166;2022-10-17T23:52:42;21.20;86.90
54485;DHT22;45006;56.958;24.166;2022-10-17T23:55:09;21.20;87.00
54485;DHT22;45006;56.958;24.166;2022-10-17T23:57:36;21.20;86.90
